Time;durP1;ratioP1;P1;durP2;ratioP2;P2;SDS_P1;SDS_P2;PMS_P1;PMS_P2;Temp;Humidity;BMP_temperature;BMP_pressure;BME280_temperature;BME280_humidity;BME280_pressure;Samples;Min_cycle;Max_cycle;Signal;HPM_P1;HPM_P2
2021/01/01 00:00:37;;;;;;;19.40;6.78;;;;;;;13.40;64.68;100982.23;1728662;82;21160;-47
2021/01/01 00:03:06;;;;;;;27.87;9.03;;;;;;;13.39;64.78;100975.31;1722674;82;21168;-47
2021/01/01 00:05:34;;;;;;;19.15;7.62;;;;;;;13.40;64.71;100977.02;1722108;82;21149;-47
2021/01/01 00:08:03;;;;;;;24.12;8.03;;;;;;;13.42;64.55;100977.82;1725035;82;21193;-47
2021/01/01 00:10:32;;;;;;;22.30;7.30;;;;;;;13.42;64.53;100975.20;1724957;82;21157;-47
2021/01/01 00:13:00;;;;;;;17.67;8.55;;;;;;;13.44;64.45;100981.24;1723598;82;21149;-47
2021/01/01 00:15:28;;;;;;;16.62;8.30;;;;;;;13.44;64.45;100976.02;1726606;82;21165;-47
2021/01/01 00:17:57;;;;;;;19.12;9.43;;;;;;;13.45;64.43;100972.52;1721541;82;21303;-47
2021/01/01 00:20:25;;;;;;;17.30;7.30;;;;;;;13.47;64.34;100971.58;1729900;82;21323;-47
2021/01/01 00:22:54;;;;;;;21.33;7.50;;;;;;;13.46;64.24;100966.37;1718468;82;21209;-47
2021/01/01 00:25:23;;;;;;;26.12;9.13;;;;;;;13.52;64.09;100971.41;1729979;82;21290;-47
2021/01/01 00:27:52;;;;;;;19.73;7.75;;;;;;;13.55;64.01;100973.50;1721302;82;21585;-47
2021/01/01 00:30:22;;;;;;;27.60;8.80;;;;;;;13.57;64.00;100965.16;1729135;82;21605;-47
2021/01/01 00:32:50;;;;;;;23.07;8.88;;;;;;;13.58;63.96;100979.09;1726146;82;21149;-47
2021/01/01 00:35:18;;;;;;;20.97;9.28;;;;;;;13.57;63.92;100969.53;1723416;81;21156;-47
2021/01/01 00:37:47;;;;;;;23.32;8.80;;;;;;;13.56;63.98;100967.83;1724062;82;21145;-47
2021/01/01 00:40:15;;;;;;;20.32;8.33;;;;;;;13.53;64.10;100967.91;1723194;82;21612;-48
2021/01/01 00:42:43;;;;;;;28.23;9.43;;;;;;;13.53;64.24;100973.14;1734525;82;21196;-47
2021/01/01 00:45:13;;;;;;;24.10;10.00;;;;;;;13.52;64.27;100964.88;1734709;82;21176;-47
2021/01/01 00:47:46;;;;;;;19.30;8.00;;;;;;;13.51;64.23;100969.72;1744697;82;21596;-47
2021/01/01 00:50:15;;;;;;;20.55;8.25;;;;;;;13.48;64.27;100970.66;1737108;82;21292;-47
2021/01/01 00:52:44;;;;;;;24.02;9.15;;;;;;;13.47;64.32;100972.02;1732584;82;21691;-47
2021/01/01 00:55:12;;;;;;;21.40;8.80;;;;;;;13.48;64.40;100967.17;1741738;80;21160;-47
2021/01/01 00:57:41;;;;;;;20.25;8.03;;;;;;;13.47;64.39;100969.41;1737287;82;21177;-47
2021/01/01 01:00:12;;;;;;;13.65;7.05;;;;;;;13.37;64.67;100974.50;1743217;82;21606;-47
2021/01/01 01:02:42;;;;;;;19.73;8.45;;;;;;;13.42;64.55;100976.52;1739102;82;21153;-47
2021/01/01 01:05:11;;;;;;;22.32;8.65;;;;;;;13.41;64.68;100982.22;1745259;82;21137;-47
2021/01/01 01:07:40;;;;;;;22.52;9.13;;;;;;;13.41;64.68;100978.73;1739352;82;21156;-47
2021/01/01 01:10:12;;;;;;;18.17;8.48;;;;;;;13.38;64.74;100979.68;1739283;82;21176;-47
2021/01/01 01:12:40;;;;;;;17.57;7.80;;;;;;;13.36;64.77;100975.39;1736315;82;21141;-47
2021/01/01 01:15:10;;;;;;;21.07;8.75;;;;;;;13.35;64.81;100978.92;1743113;82;21192;-47
2021/01/01 01:17:41;;;;;;;16.23;7.65;;;;;;;13.35;64.96;100980.23;1732238;82;21157;-47
2021/01/01 01:20:12;;;;;;;27.55;10.45;;;;;;;13.37;64.99;100981.04;1738793;82;21512;-47
2021/01/01 01:22:40;;;;;;;18.87;7.80;;;;;;;13.37;65.04;100979.73;1726271;82;21108;-47
2021/01/01 01:25:10;;;;;;;22.37;8.73;;;;;;;13.38;65.04;100981.43;1735671;82;21152;-47
2021/01/01 01:27:38;;;;;;;21.55;8.55;;;;;;;13.40;65.02;100987.47;1739073;82;21149;-47
2021/01/01 01:30:08;;;;;;;22.87;8.60;;;;;;;13.41;64.96;100986.14;1734151;82;21322;-47
2021/01/01 01:32:36;;;;;;;23.57;9.28;;;;;;;13.41;64.96;100986.58;1737550;82;21160;-47
2021/01/01 01:35:06;;;;;;;24.82;8.58;;;;;;;13.42;64.90;100994.37;1738952;82;21125;-47
2021/01/01 01:37:34;;;;;;;20.55;7.90;;;;;;;13.43;64.78;100990.00;1737407;82;21572;-48
2021/01/01 01:40:05;;;;;;;24.27;10.05;;;;;;;13.42;64.74;100993.50;1736616;82;21161;-47
2021/01/01 01:42:33;;;;;;;21.60;8.73;;;;;;;13.43;64.71;100987.39;1738724;81;21196;-47
2021/01/01 01:45:02;;;;;;;24.18;9.63;;;;;;;13.42;64.67;100990.45;1718507;82;21161;-47
2021/01/01 01:47:30;;;;;;;22.27;8.88;;;;;;;13.41;64.59;100990.50;1730882;82;21137;-47
2021/01/01 01:49:59;;;;;;;16.30;7.62;;;;;;;13.40;64.51;100992.69;1719945;82;21298;-47
2021/01/01 01:52:27;;;;;;;21.73;8.25;;;;;;;13.39;64.54;100996.22;1727131;82;21616;-47
2021/01/01 01:54:56;;;;;;;20.27;8.90;;;;;;;13.39;64.50;100996.22;1724738;82;21587;-47
2021/01/01 01:57:27;;;;;;;21.95;9.88;;;;;;;13.39;64.47;100996.22;1731249;82;21299;-47
2021/01/01 01:59:56;;;;;;;23.67;9.47;;;;;;;13.38;64.45;101001.03;1728447;82;21158;-47
2021/01/01 02:02:25;;;;;;;21.48;8.05;;;;;;;13.37;64.44;101005.87;1718834;82;21161;-47
2021/01/01 02:04:53;;;;;;;25.00;9.13;;;;;;;13.34;64.48;101006.81;1730966;81;21185;-47
2021/01/01 02:07:22;;;;;;;28.42;9.53;;;;;;;13.34;64.47;101005.94;1719763;82;21213;-47
2021/01/01 02:09:51;;;;;;;24.30;9.03;;;;;;;13.33;64.49;101013.39;1692597;82;21165;-47
2021/01/01 02:12:22;;;;;;;25.43;8.13;;;;;;;13.32;64.46;101011.66;1731027;81;21556;-47
2021/01/01 02:14:50;;;;;;;24.92;8.85;;;;;;;13.27;64.53;101012.27;1726263;82;21161;-47
2021/01/01 02:17:19;;;;;;;26.85;9.35;;;;;;;13.25;64.55;101014.06;1721205;82;21185;-46
2021/01/01 02:19:47;;;;;;;24.20;9.00;;;;;;;13.22;64.73;101014.14;1722525;82;21208;-47
2021/01/01 02:22:16;;;;;;;23.90;8.58;;;;;;;13.22;64.75;101014.14;1692811;82;21580;-47
2021/01/01 02:24:44;;;;;;;21.42;8.00;;;;;;;13.22;64.73;101014.14;1724245;82;21201;-47
2021/01/01 02:27:13;;;;;;;20.92;8.23;;;;;;;13.25;64.56;101012.77;1730985;82;21130;-47
2021/01/01 02:29:42;;;;;;;24.85;8.88;;;;;;;13.26;64.47;101011.84;1725630;82;21156;-47
2021/01/01 02:32:11;;;;;;;26.15;10.18;;;;;;;13.25;64.42;101009.67;1726949;82;21165;-46
2021/01/01 02:34:40;;;;;;;17.82;8.03;;;;;;;13.26;64.43;101018.38;1706859;82;21157;-47
2021/01/01 02:37:09;;;;;;;20.37;7.67;;;;;;;13.23;64.51;101017.17;1719667;82;21331;-46
2021/01/01 02:39:37;;;;;;;18.07;7.65;;;;;;;13.20;64.60;101010.72;1730690;82;21185;-46
2021/01/01 02:42:06;;;;;;;20.23;7.87;;;;;;;13.18;64.72;101009.90;1719008;82;21177;-47
2021/01/01 02:44:34;;;;;;;23.95;9.48;;;;;;;13.17;64.85;101010.81;1728021;82;21165;-47
2021/01/01 02:47:03;;;;;;;23.27;8.13;;;;;;;13.17;64.85;101002.98;1723821;82;21279;-47
2021/01/01 02:49:32;;;;;;;25.72;8.08;;;;;;;13.17;64.79;101004.28;1723416;82;21117;-47
2021/01/01 02:52:01;;;;;;;20.48;7.60;;;;;;;13.16;64.70;100999.50;1728119;82;21299;-47
2021/01/01 02:54:29;;;;;;;22.60;7.75;;;;;;;13.16;64.70;100996.02;1721068;82;21153;-47
2021/01/01 02:56:58;;;;;;;17.32;8.08;;;;;;;13.15;64.67;101003.47;1727357;82;21149;-46
2021/01/01 02:59:27;;;;;;;24.10;9.03;;;;;;;13.14;64.65;101001.30;1726807;82;21129;-47
2021/01/01 03:01:55;;;;;;;23.87;9.25;;;;;;;13.13;64.52;101009.19;1727791;81;21169;-46
2021/01/01 03:04:24;;;;;;;22.30;8.75;;;;;;;13.08;64.49;101006.23;1719149;82;21149;-46
2021/01/01 03:06:53;;;;;;;28.85;8.63;;;;;;;13.06;64.42;101002.80;1730779;82;21121;-46
2021/01/01 03:09:21;;;;;;;22.00;8.80;;;;;;;13.04;64.47;101003.30;1719338;82;21588;-46
2021/01/01 03:11:50;;;;;;;32.30;8.98;;;;;;;13.02;64.42;101005.06;1727455;82;21134;-46
2021/01/01 03:14:18;;;;;;;25.88;7.20;;;;;;;12.99;64.38;101006.91;1724098;81;21181;-47
2021/01/01 03:16:46;;;;;;;23.47;9.13;;;;;;;12.97;64.41;101009.58;1724724;82;21149;-46
2021/01/01 03:19:16;;;;;;;21.23;7.12;;;;;;;12.94;64.46;101007.03;1721321;82;21185;-47
2021/01/01 03:21:44;;;;;;;26.33;9.10;;;;;;;12.92;64.61;101014.05;1722461;82;21168;-46
2021/01/01 03:24:12;;;;;;;22.50;8.73;;;;;;;12.93;64.59;101009.69;1722482;82;21287;-46
2021/01/01 03:26:41;;;;;;;15.88;6.85;;;;;;;12.93;64.48;101013.17;1724881;82;21201;-46
2021/01/01 03:29:09;;;;;;;24.12;7.53;;;;;;;12.92;64.53;101011.44;1726627;82;21169;-46
2021/01/01 03:31:37;;;;;;;21.30;8.53;;;;;;;12.91;64.45;101011.48;1722830;82;21573;-46
2021/01/01 03:34:06;;;;;;;20.48;7.78;;;;;;;12.89;64.54;101007.63;1718566;82;21172;-46
2021/01/01 03:36:34;;;;;;;25.62;8.85;;;;;;;12.89;64.56;101011.54;1727929;82;21153;-46
2021/01/01 03:39:03;;;;;;;19.32;7.33;;;;;;;12.88;64.54;101020.26;1723524;82;21201;-46
2021/01/01 03:41:32;;;;;;;23.07;7.87;;;;;;;12.88;64.53;101019.42;1723457;82;21287;-47
2021/01/01 03:44:00;;;;;;;21.77;8.08;;;;;;;12.86;64.58;101021.19;1736925;82;21731;-46
2021/01/01 03:46:29;;;;;;;25.45;8.13;;;;;;;12.84;64.56;101019.93;1737676;82;21298;-46
2021/01/01 03:48:58;;;;;;;20.37;7.33;;;;;;;12.85;64.52;101023.41;1738588;82;21317;-46
2021/01/01 03:51:28;;;;;;;18.87;8.20;;;;;;;12.85;64.32;101023.41;1738879;82;21125;-46
2021/01/01 03:53:56;;;;;;;22.40;7.03;;;;;;;12.83;64.34;101026.07;1737444;82;21141;-47
2021/01/01 03:56:25;;;;;;;21.35;7.40;;;;;;;12.81;64.48;101027.86;1740357;82;21145;-46
2021/01/01 03:58:53;;;;;;;19.77;7.60;;;;;;;12.82;64.59;101040.01;1735227;82;21172;-46
2021/01/01 04:01:22;;;;;;;22.52;7.87;;;;;;;12.81;64.52;101031.78;1744569;82;21164;-47
2021/01/01 04:03:50;;;;;;;24.32;7.83;;;;;;;12.82;64.42;101034.78;1735362;82;21164;-46
2021/01/01 04:06:19;;;;;;;26.15;7.37;;;;;;;12.80;64.52;101034.41;1739107;82;21165;-46
2021/01/01 04:08:47;;;;;;;28.15;8.03;;;;;;;12.77;64.47;101042.34;1739571;82;21193;-46
2021/01/01 04:11:16;;;;;;;18.87;6.72;;;;;;;12.74;64.59;101046.32;1734731;82;21132;-46
2021/01/01 04:13:45;;;;;;;21.37;7.78;;;;;;;12.73;64.57;101048.10;1736325;82;21152;-46
2021/01/01 04:16:14;;;;;;;23.80;8.33;;;;;;;12.70;64.59;101051.22;1735778;82;21121;-46
2021/01/01 04:18:42;;;;;;;26.55;7.90;;;;;;;12.67;64.52;101054.78;1738592;82;21140;-46
2021/01/01 04:21:10;;;;;;;20.05;6.87;;;;;;;12.63;64.63;101062.26;1738850;82;21726;-46
2021/01/01 04:23:39;;;;;;;17.98;6.55;;;;;;;12.62;64.55;101067.09;1737395;82;21286;-47
2021/01/01 04:26:10;;;;;;;26.50;8.48;;;;;;;12.58;64.63;101063.28;1740289;82;21156;-46
2021/01/01 04:28:39;;;;;;;17.12;5.90;;;;;;;12.56;64.70;101062.02;1741422;82;21172;-46
2021/01/01 04:31:07;;;;;;;19.52;6.05;;;;;;;12.55;64.71;101068.12;1732286;82;21710;-46
2021/01/01 04:33:36;;;;;;;18.75;7.33;;;;;;;12.54;64.78;101067.73;1738216;82;21156;-46
2021/01/01 04:36:05;;;;;;;24.67;7.58;;;;;;;12.52;64.91;101073.44;1741424;82;21185;-46
2021/01/01 04:38:33;;;;;;;28.17;9.23;;;;;;;12.52;65.04;101077.78;1734680;82;21121;-46
2021/01/01 04:41:02;;;;;;;21.73;7.72;;;;;;;12.49;65.02;101082.62;1741813;82;21156;-46
2021/01/01 04:43:31;;;;;;;19.92;7.47;;;;;;;12.49;64.98;101078.72;1732924;81;21180;-46
2021/01/01 04:46:00;;;;;;;19.62;5.83;;;;;;;12.51;64.99;101082.14;1725180;82;21633;-46
2021/01/01 04:48:28;;;;;;;18.95;7.22;;;;;;;12.52;64.86;101084.31;1723981;82;21355;-46
2021/01/01 04:50:57;;;;;;;18.95;6.45;;;;;;;12.52;64.81;101083.01;1723477;82;21161;-47
2021/01/01 04:53:26;;;;;;;16.32;5.65;;;;;;;12.53;64.75;101079.05;1723104;82;21315;-46
2021/01/01 04:55:54;;;;;;;17.90;5.90;;;;;;;12.53;64.58;101075.61;1728455;82;21137;-46
2021/01/01 04:58:24;;;;;;;17.07;6.17;;;;;;;12.58;64.44;101078.50;1718359;82;21137;-46
2021/01/01 05:00:53;;;;;;;19.80;6.55;;;;;;;12.57;64.50;101081.99;1698735;82;21113;-46
2021/01/01 05:03:21;;;;;;;21.68;7.22;;;;;;;12.66;64.21;101087.00;1727745;82;21584;-46
2021/01/01 05:05:50;;;;;;;21.35;7.67;;;;;;;12.75;63.77;101089.39;1720693;82;21185;-46
2021/01/01 05:08:19;;;;;;;19.23;6.85;;;;;;;12.59;64.10;101089.81;1727942;82;21192;-46
2021/01/01 05:10:48;;;;;;;20.45;6.17;;;;;;;12.54;64.29;101087.30;1723796;82;21738;-46
2021/01/01 05:13:18;;;;;;;22.02;7.10;;;;;;;12.53;64.40;101089.96;1725157;82;21597;-46
2021/01/01 05:15:48;;;;;;;14.80;6.05;;;;;;;12.52;64.37;101089.09;1724320;82;21552;-46
2021/01/01 05:18:25;;;;;;;17.27;5.83;;;;;;;12.36;64.57;101091.67;1730133;82;21711;-47
2021/01/01 05:20:59;;;;;;;12.35;5.40;;;;;;;12.43;64.69;101086.69;1723978;82;21181;-47
2021/01/01 05:23:29;;;;;;;19.27;6.55;;;;;;;12.47;64.49;101088.33;1726984;82;21569;-46
2021/01/01 05:26:14;;;;;;;22.17;6.95;;;;;;;12.49;64.52;101096.98;1721921;82;21125;-46
2021/01/01 05:28:59;;;;;;;20.97;7.45;;;;;;;12.51;64.47;101107.41;1722672;82;21227;-46
2021/01/01 05:31:29;;;;;;;19.85;7.10;;;;;;;12.22;65.15;101109.36;1730915;82;21136;-46
2021/01/01 05:34:07;;;;;;;15.80;5.37;;;;;;;12.43;64.70;101107.57;1720057;81;21145;-46
2021/01/01 05:36:44;;;;;;;19.30;6.10;;;;;;;12.46;64.65;101104.04;1728219;82;21731;-46
2021/01/01 05:39:20;;;;;;;20.60;6.80;;;;;;;12.46;64.94;101111.43;1721975;82;21588;-46
2021/01/01 05:41:53;;;;;;;20.92;5.97;;;;;;;12.44;64.98;101106.70;1726919;82;21209;-47
2021/01/01 05:44:31;;;;;;;19.85;6.20;;;;;;;11.82;66.99;101109.84;1731271;82;21178;-46
2021/01/01 05:47:04;;;;;;;18.20;5.55;;;;;;;11.71;67.53;101110.50;1676262;85;21187;-47
2021/01/01 05:49:40;;;;;;;17.10;6.15;;;;;;;11.66;67.81;101109.72;1667485;85;21224;-47
2021/01/01 05:52:18;;;;;;;13.00;5.22;;;;;;;11.94;67.21;101113.48;1675905;85;21180;-47
2021/01/01 05:54:58;;;;;;;14.23;5.83;;;;;;;12.34;65.76;101107.81;1670971;85;21652;-46
2021/01/01 05:57:40;;;;;;;14.95;6.72;;;;;;;12.46;65.28;101116.65;1673740;85;21192;-47
2021/01/01 06:00:09;;;;;;;19.82;6.10;;;;;;;12.23;65.93;101121.09;1669350;85;21227;-47
2021/01/01 06:02:41;;;;;;;17.45;6.53;;;;;;;12.44;65.24;101123.66;1677212;85;21552;-47
2021/01/01 06:05:10;;;;;;;20.90;6.53;;;;;;;12.23;65.66;101128.05;1670796;85;21180;-47
2021/01/01 06:07:40;;;;;;;16.93;6.55;;;;;;;11.80;67.24;101129.44;1677430;85;21196;-47
2021/01/01 06:10:11;;;;;;;14.43;5.65;;;;;;;11.67;67.86;101131.00;1671934;85;21606;-47
2021/01/01 06:12:39;;;;;;;17.85;5.50;;;;;;;11.68;67.88;101134.91;1673817;85;21140;-47
2021/01/01 06:15:10;;;;;;;15.83;6.05;;;;;;;11.65;68.20;101131.02;1675327;85;21157;-47
2021/01/01 06:17:51;;;;;;;17.55;6.10;;;;;;;11.63;68.66;101125.41;1678273;85;21612;-47
2021/01/01 06:20:23;;;;;;;19.73;6.25;;;;;;;11.62;69.03;101121.09;1673347;85;21168;-47
2021/01/01 06:23:03;;;;;;;12.37;4.60;;;;;;;11.65;69.15;101119.72;1677078;85;21212;-47
2021/01/01 06:25:34;;;;;;;17.05;5.37;;;;;;;11.68;69.22;101117.09;1676833;85;21188;-47
2021/01/01 06:28:03;;;;;;;19.60;6.43;;;;;;;11.71;69.50;101117.88;1675653;85;21212;-47
2021/01/01 06:30:32;;;;;;;31.48;8.93;;;;;;;11.76;69.58;101128.22;1664048;85;21136;-46
2021/01/01 06:33:07;;;;;;;21.77;6.28;;;;;;;11.81;69.37;101129.00;1650960;85;21184;-47
2021/01/01 06:35:44;;;;;;;20.52;6.30;;;;;;;11.84;69.29;101124.57;1673446;85;21177;-47
2021/01/01 06:38:12;;;;;;;25.80;7.08;;;;;;;11.87;69.36;101132.31;1678483;85;21252;-47
2021/01/01 06:40:48;;;;;;;23.55;7.40;;;;;;;11.98;69.38;101124.27;1771346;79;23178;-47
2021/01/01 06:43:16;;;;;;;14.60;6.08;;;;;;;12.00;69.24;101125.09;1738844;82;21798;-47
2021/01/01 06:45:46;;;;;;;20.23;6.03;;;;;;;12.04;69.18;101122.83;1739696;82;21128;-47
2021/01/01 06:48:26;;;;;;;19.35;6.60;;;;;;;12.10;69.10;101129.20;1740399;82;21136;-47
2021/01/01 06:50:54;;;;;;;30.40;7.60;;;;;;;12.12;68.94;101131.34;1740077;82;21200;-47
2021/01/01 06:53:29;;;;;;;19.45;7.30;;;;;;;12.14;68.94;101134.77;1736197;82;21148;-47
2021/01/01 06:56:11;;;;;;;20.60;6.95;;;;;;;12.15;68.87;101139.11;1741017;82;21160;-46
2021/01/01 06:58:39;;;;;;;12.78;5.22;;;;;;;12.15;68.53;101140.41;1693423;84;21675;-47
2021/01/01 07:01:17;;;;;;;14.10;5.78;;;;;;;12.10;68.39;101139.64;1686912;84;21592;-47
2021/01/01 07:03:45;;;;;;;14.68;4.62;;;;;;;12.14;67.93;101139.55;1690360;83;21136;-47
2021/01/01 07:06:22;;;;;;;15.03;5.22;;;;;;;12.15;67.68;101144.33;1690170;84;21194;-46
2021/01/01 07:08:51;;;;;;;12.93;4.58;;;;;;;12.14;67.53;101147.38;1690262;84;21196;-47
2021/01/01 07:11:31;;;;;;;14.95;5.72;;;;;;;12.14;67.31;101143.90;1690276;84;21200;-47
2021/01/01 07:14:11;;;;;;;13.25;4.95;;;;;;;12.11;67.35;101143.55;1690305;84;21774;-46
2021/01/01 07:16:46;;;;;;;16.42;6.22;;;;;;;12.12;67.51;101137.42;1756606;79;28199;-47
2021/01/01 07:19:16;;;;;;;18.48;6.53;;;;;;;12.13;67.63;101144.81;1742299;82;21517;-46
2021/01/01 07:21:44;;;;;;;15.03;4.97;;;;;;;12.20;67.58;101148.98;1736074;82;21302;-46
2021/01/01 07:24:12;;;;;;;14.75;4.92;;;;;;;12.22;67.56;101152.41;1736336;82;21334;-46
2021/01/01 07:26:41;;;;;;;12.93;5.67;;;;;;;12.24;67.59;101145.44;1738456;82;21156;-47
2021/01/01 07:29:10;;;;;;;12.20;5.47;;;;;;;12.25;67.73;101153.67;1740344;82;21173;-46
2021/01/01 07:31:39;;;;;;;20.23;6.53;;;;;;;12.27;67.69;101158.41;1744532;82;21168;-47
2021/01/01 07:34:09;;;;;;;12.40;5.33;;;;;;;12.27;67.79;101158.41;1731915;82;21144;-47
2021/01/01 07:36:37;;;;;;;14.23;4.83;;;;;;;12.29;67.93;101156.62;1742102;82;21581;-47
2021/01/01 07:39:07;;;;;;;10.53;4.40;;;;;;;12.30;68.16;101154.44;1736551;82;21160;-47
2021/01/01 07:41:36;;;;;;;15.00;4.80;;;;;;;12.33;68.28;101156.96;1737924;82;21192;-47
2021/01/01 07:44:05;;;;;;;12.63;5.33;;;;;;;12.36;68.41;101156.91;1740931;82;21159;-47
2021/01/01 07:46:34;;;;;;;10.00;4.53;;;;;;;12.40;68.43;101161.60;1734399;82;21144;-46
2021/01/01 07:49:02;;;;;;;15.43;5.62;;;;;;;12.42;68.55;101163.73;1741892;82;21152;-47
2021/01/01 07:51:31;;;;;;;13.68;5.45;;;;;;;12.47;68.41;101154.89;1737301;82;21608;-47
2021/01/01 07:54:02;;;;;;;14.33;5.30;;;;;;;12.52;68.31;101167.41;1734322;82;21194;-47
2021/01/01 07:56:31;;;;;;;15.18;5.70;;;;;;;12.53;68.32;101163.05;1737596;82;21298;-47
2021/01/01 07:59:01;;;;;;;19.85;5.15;;;;;;;12.58;68.28;101175.09;1738916;82;21168;-47
2021/01/01 08:01:30;;;;;;;14.23;4.50;;;;;;;12.62;68.00;101179.78;1731891;82;21163;-47
2021/01/01 08:03:58;;;;;;;12.25;4.75;;;;;;;12.65;67.83;101178.42;1742855;82;21132;-47
2021/01/01 08:06:27;;;;;;;16.27;5.17;;;;;;;12.68;67.66;101182.25;1734403;82;21164;-47
2021/01/01 08:09:02;;;;;;;16.77;5.03;;;;;;;12.72;67.46;101180.84;1735210;80;21133;-47
2021/01/01 08:11:31;;;;;;;10.82;4.42;;;;;;;12.73;66.99;101181.27;1738092;82;21132;-47
2021/01/01 08:14:00;;;;;;;13.70;5.15;;;;;;;12.71;66.81;101183.50;1737869;82;21299;-47
2021/01/01 08:16:29;;;;;;;15.98;5.08;;;;;;;12.59;67.13;101185.92;1738999;81;21286;-47
2021/01/01 08:18:57;;;;;;;15.72;6.17;;;;;;;12.70;66.66;101191.77;1738371;82;21652;-47
2021/01/01 08:21:25;;;;;;;11.88;6.55;;;;;;;12.70;66.49;101189.59;1741009;82;21655;-47
2021/01/01 08:23:58;;;;;;;12.85;4.22;;;;;;;12.70;66.46;101191.77;1732427;82;21581;-47
2021/01/01 08:26:27;;;;;;;10.10;4.90;;;;;;;12.71;66.41;101195.25;1743276;82;21758;-47
2021/01/01 08:28:56;;;;;;;11.03;4.83;;;;;;;12.70;66.53;101190.46;1732185;82;21291;-47
2021/01/01 08:31:25;;;;;;;9.73;4.67;;;;;;;12.72;66.45;101188.67;1732233;82;21153;-47
2021/01/01 08:33:53;;;;;;;9.95;4.20;;;;;;;12.74;66.50;101189.50;1742140;82;21172;-47
2021/01/01 08:36:31;;;;;;;11.83;4.47;;;;;;;12.76;66.26;101185.09;1737429;82;21337;-48
2021/01/01 08:39:11;;;;;;;13.15;4.80;;;;;;;12.71;66.21;101175.22;1736935;82;21286;-47
2021/01/01 08:41:46;;;;;;;14.45;4.28;;;;;;;12.74;66.17;101179.05;1738306;82;21136;-47
2021/01/01 08:44:16;;;;;;;19.30;4.67;;;;;;;12.47;66.96;101184.08;1737541;82;21180;-47
2021/01/01 08:46:44;;;;;;;13.08;4.65;;;;;;;12.38;67.28;101185.57;1741531;82;21152;-48
2021/01/01 08:49:17;;;;;;;10.10;4.80;;;;;;;12.34;67.44;101190.45;1734659;82;21160;-47
2021/01/01 08:51:51;;;;;;;12.58;4.58;;;;;;;12.36;67.37;101189.53;1829872;77;23121;-47
2021/01/01 08:54:23;;;;;;;9.58;4.10;;;;;;;12.29;67.54;101185.32;1813805;78;21609;-47
2021/01/01 08:56:59;;;;;;;13.98;5.40;;;;;;;12.29;67.66;101197.06;1722408;82;21172;-47
2021/01/01 08:59:28;;;;;;;13.30;5.22;;;;;;;12.32;67.55;101204.84;1725617;82;21192;-48
2021/01/01 09:01:57;;;;;;;8.40;3.40;;;;;;;12.31;67.37;101207.02;1724492;82;21148;-48
2021/01/01 09:04:27;;;;;;;10.28;4.78;;;;;;;12.31;67.32;101212.23;1722226;82;21172;-47
2021/01/01 09:07:00;;;;;;;7.80;4.33;;;;;;;12.30;67.30;101207.06;1722601;82;21164;-47
2021/01/01 09:09:30;;;;;;;9.10;4.05;;;;;;;12.27;67.29;101206.67;1723000;82;21180;-47
2021/01/01 09:12:19;;;;;;;10.80;4.58;;;;;;;12.24;67.43;101205.45;1722209;82;21247;-47
2021/01/01 09:14:55;;;;;;;8.80;4.15;;;;;;;12.29;67.41;101190.54;1771447;79;23526;-47
2021/01/01 09:17:24;;;;;;;9.33;4.10;;;;;;;12.27;67.34;101200.16;1737327;82;21148;-47
2021/01/01 09:20:08;;;;;;;13.58;4.58;;;;;;;12.29;67.13;101212.72;1737067;82;21168;-47
2021/01/01 09:22:42;;;;;;;9.50;3.98;;;;;;;12.29;67.02;101204.89;1771524;79;22924;-47
2021/01/01 09:25:24;;;;;;;7.35;3.83;;;;;;;12.22;67.04;101208.51;1740082;82;21124;-46
2021/01/01 09:27:53;;;;;;;11.00;4.15;;;;;;;12.21;67.01;101202.89;1736846;82;21188;-48
2021/01/01 09:30:25;;;;;;;10.43;4.08;;;;;;;12.17;67.02;101193.41;1739220;82;21589;-48
2021/01/01 09:32:55;;;;;;;9.05;4.47;;;;;;;12.15;67.12;101195.20;1685842;84;21557;-47
2021/01/01 09:35:25;;;;;;;8.08;4.20;;;;;;;12.17;67.21;101201.24;1687019;84;21223;-47
2021/01/01 09:38:03;;;;;;;13.53;5.40;;;;;;;12.19;67.17;101200.77;1665584;85;21202;-47
2021/01/01 09:40:36;;;;;;;12.65;3.85;;;;;;;12.21;67.01;101195.06;1688593;84;21203;-47
2021/01/01 09:43:05;;;;;;;11.80;4.50;;;;;;;12.25;66.89;101196.72;1670061;85;21201;-47
2021/01/01 09:45:36;;;;;;;7.60;3.67;;;;;;;12.25;66.78;101190.19;1669592;85;21184;-47
2021/01/01 09:48:06;;;;;;;10.50;4.25;;;;;;;12.24;66.58;101189.33;1673544;85;21265;-47
2021/01/01 09:50:34;;;;;;;7.80;4.20;;;;;;;12.23;66.57;101185.45;1684505;84;21198;-47
2021/01/01 09:53:03;;;;;;;13.10;4.10;;;;;;;12.20;66.47;101180.29;1686231;84;21173;-47
2021/01/01 09:55:32;;;;;;;10.32;4.40;;;;;;;12.20;66.25;101181.59;1661749;85;21206;-47
2021/01/01 09:58:01;;;;;;;13.30;4.05;;;;;;;12.18;66.25;101187.29;1689290;84;21626;-47
2021/01/01 10:00:31;;;;;;;6.72;3.80;;;;;;;12.16;66.18;101181.25;1692635;84;21167;-47
2021/01/01 10:02:59;;;;;;;8.53;4.33;;;;;;;12.17;66.10;101176.02;1685983;84;21178;-47
2021/01/01 10:05:28;;;;;;;8.85;3.85;;;;;;;12.19;66.06;101175.55;1685874;84;21203;-47
2021/01/01 10:07:56;;;;;;;8.18;4.53;;;;;;;12.21;66.01;101176.80;1687578;84;21200;-48
2021/01/01 10:10:25;;;;;;;8.25;4.85;;;;;;;12.22;65.93;101171.98;1688461;84;21184;-48
2021/01/01 10:12:53;;;;;;;9.98;4.60;;;;;;;12.23;66.01;101171.11;1687337;84;21200;-48
2021/01/01 10:15:21;;;;;;;8.15;5.00;;;;;;;12.25;66.20;101178.45;1691631;84;21143;-48
2021/01/01 10:17:49;;;;;;;10.30;5.33;;;;;;;12.27;66.29;101171.45;1666607;85;21214;-48
2021/01/01 10:20:17;;;;;;;12.13;5.70;;;;;;;12.30;66.28;101171.40;1668901;85;21403;-47
2021/01/01 10:22:47;;;;;;;10.72;6.40;;;;;;;12.35;66.16;101170.83;1673177;84;21594;-48
2021/01/01 10:25:15;;;;;;;13.18;5.17;;;;;;;12.39;65.94;101171.17;1671289;85;21344;-48
2021/01/01 10:27:44;;;;;;;15.28;7.00;;;;;;;12.43;65.64;101172.81;1689265;84;21153;-47
2021/01/01 10:30:14;;;;;;;12.75;5.47;;;;;;;12.45;65.55;101171.03;1678475;85;21310;-47
2021/01/01 10:32:42;;;;;;;10.98;5.15;;;;;;;12.47;65.30;101169.25;1744557;82;21192;-47
2021/01/01 10:35:10;;;;;;;12.30;5.92;;;;;;;12.48;65.19;101165.76;1735284;82;21192;-48
2021/01/01 10:37:38;;;;;;;9.60;4.95;;;;;;;12.51;65.05;101170.89;1734280;82;21545;-48
2021/01/01 10:40:08;;;;;;;9.63;5.25;;;;;;;12.51;65.02;101173.50;1733352;82;21580;-47
2021/01/01 10:42:36;;;;;;;12.55;5.35;;;;;;;12.51;65.06;101174.80;1738397;82;21153;-47
2021/01/01 10:45:07;;;;;;;11.22;5.35;;;;;;;12.54;65.10;101177.36;1728879;82;21157;-47
2021/01/01 10:47:35;;;;;;;9.58;5.92;;;;;;;12.59;65.12;101174.18;1741381;82;21593;-46
2021/01/01 10:50:04;;;;;;;10.00;5.40;;;;;;;12.66;64.90;101178.38;1730100;82;21155;-47
2021/01/01 10:52:33;;;;;;;9.08;5.20;;;;;;;12.70;64.69;101178.72;1738173;82;21140;-47
2021/01/01 10:55:02;;;;;;;9.85;5.62;;;;;;;12.73;64.56;101172.13;1734398;82;21180;-47
2021/01/01 10:57:30;;;;;;;10.23;5.50;;;;;;;12.75;64.56;101172.95;1733439;82;21213;-47
2021/01/01 11:00:00;;;;;;;10.45;5.72;;;;;;;12.80;64.64;101174.98;1731882;82;21164;-47
2021/01/01 11:02:29;;;;;;;13.85;6.87;;;;;;;12.82;64.14;101173.19;1734494;82;21157;-47
2021/01/01 11:04:57;;;;;;;11.28;6.83;;;;;;;12.80;63.91;101180.20;1736365;82;21168;-48
2021/01/01 11:07:26;;;;;;;7.35;5.47;;;;;;;12.76;63.79;101178.56;1736905;82;21154;-47
2021/01/01 11:09:55;;;;;;;9.08;5.60;;;;;;;12.70;63.70;101187.85;1726597;82;21208;-47
2021/01/01 11:12:27;;;;;;;10.50;5.05;;;;;;;12.65;63.90;101185.78;1732744;82;21191;-47
2021/01/01 12:22:02;;;;;;;10.10;4.92;;;;;;;12.47;63.97;101213.62;1734951;82;21192;-47
2021/01/01 12:27:04;;;;;;;8.90;4.70;;;;;;;12.44;63.87;101213.70;1734494;82;21155;-48
2021/01/01 12:29:32;;;;;;;6.92;4.50;;;;;;;12.41;63.93;101225.50;1737391;82;21185;-48
2021/01/01 12:32:01;;;;;;;10.40;5.28;;;;;;;12.40;64.03;101232.93;1741393;82;21616;-47
2021/01/01 12:34:32;;;;;;;13.90;5.12;;;;;;;12.40;64.03;101237.28;1730768;82;21165;-47
2021/01/01 12:37:01;;;;;;;7.35;4.03;;;;;;;12.38;64.09;101239.94;1744681;82;21150;-47
2021/01/01 12:39:29;;;;;;;7.05;4.25;;;;;;;12.39;64.07;101245.55;1732077;82;21124;-48